Meteoliendo - El tiempo en Liendo - Informes METAR de Aeropuertos cercanos

Informes METAR de Aeropuertos cercanos

 

LEXJ - Santander
Actualización: 23/06/2018 04:30
Despejado
Despejado
 Viento del SE
Viento: SE 2 km/h
Temperatura: 15°C
Rocío: 15°C
Humedad: 100%
Barómetro: 1021 hPa
Clouds: Despejado
Visibility: 6 km
2018/06/23 02:30 LEXJ 230230Z AUTO 14001KT 6000 NCD 15/15 Q1021
LEAS - Asturias/Aviles
Actualización: 23/06/2018 04:30
Mist, Parcialmente nuboso
Mist, Parcialmente nuboso
 Viento del E
Viento: E 7 km/h
Temperatura: 15°C
Rocío: 14°C
Humedad: 94%
Barómetro: 1021 hPa
Resumen: Mist
Clouds: Parcialmente nuboso
Visibility: 5 km
2018/06/23 02:30 LEAS 230230Z AUTO 10004KT 5000 BR NSC 15/14 Q1021
LEBB - Bilbao
Actualización: 23/06/2018 04:30
Despejado
Despejado
 Viento del E
Viento: E 7 km/h
Temperatura: 14°C
Rocío: 13°C
Humedad: 94%
Barómetro: 1022 hPa
Clouds: Despejado
Visibility: 10 km
2018/06/23 02:30 LEBB 230230Z AUTO 10004KT 080V140 9999 NCD 14/13 Q1022
 
LEBG - Burgos/Villafría
Actualización: 23/06/2018 04:30
Few Clouds
Few Clouds
 Viento del NNE
Viento: NNE 11 km/h
Temperatura: 11°C
Rocío: 11°C
Humedad: 100%
Barómetro: 1022 hPa
Clouds: Few Clouds
Visibility: 7 km
Cloud details: Few Clouds 152 m
2018/06/23 02:30 LEBG 230230Z AUTO 03006KT 7000 FEW005/// 11/11 Q1022
LELO - Logroño
Actualización: 23/06/2018 04:30
Despejado
Despejado
 Viento del O
Viento: O 9 km/h
Temperatura: 15°C
Rocío: 13°C
Humedad: 88%
Barómetro: 1021 hPa
Clouds: Despejado
Visibility: 10 km
2018/06/23 02:30 LELO 230230Z AUTO 28005KT 9999 NCD 15/13 Q1021
LEPP - Pamplona
Actualización: 23/06/2018 04:30
Despejado
Despejado
 Viento del NO
Viento: NO 15 km/h
Temperatura: 15°C
Rocío: 10°C
Humedad: 72%
Barómetro: 1021 hPa
Clouds: Despejado
Visibility: 9 km
2018/06/23 02:30 LEPP 230230Z AUTO 32008KT 9000 NCD 15/10 Q1021
 
LESO - San Sebastián
Actualización: 23/06/2018 04:30
Despejado
Despejado
 Viento del S
Viento: S 9 km/h
Temperatura: 15°C
Rocío: 14°C
Humedad: 94%
Barómetro: 1021 hPa
Clouds: Despejado
Visibility: 10 km
2018/06/23 02:30 LESO 230230Z AUTO 18005KT 9999 NCD 15/14 Q1021
LEST - Santiago de Compostela
Actualización: 23/06/2018 04:30
Despejado
Despejado
 Viento del ESE
Viento: ESE 19 km/h
Temperatura: 17°C
Rocío: 16°C
Humedad: 94%
Barómetro: 1018 hPa
Resumen: Despejado
Visibility: greater than 10 km
2018/06/23 02:30 LEST 230230Z 11010KT CAVOK 17/16 Q1018 NOSIG
LEVT - Vitoria
Actualización: 23/06/2018 04:30
Parcialmente nuboso
Parcialmente nuboso
 Viento del varies
Viento: varies 4 km/h
Temperatura: 9°C
Rocío: 9°C
Humedad: 100%
Barómetro: 1022 hPa
Clouds: Parcialmente nuboso
Visibility: 9 km
2018/06/23 02:30 LEVT 230230Z VRB02KT 9000 NSC 09/09 Q1022